sensor_id;sensor_type;location;lat;lon;timestamp;P1;durP1;ratioP1;P2;durP2;ratioP2
45909;SDS011;31622;55.416;37.840;2023-04-01T00:01:05;5.47;;;3.95;;
45909;SDS011;31622;55.416;37.840;2023-04-01T00:03:31;5.75;;;4.18;;
45909;SDS011;31622;55.416;37.840;2023-04-01T00:05:58;4.93;;;3.88;;
45909;SDS011;31622;55.416;37.840;2023-04-01T00:08:25;4.80;;;3.78;;
45909;SDS011;31622;55.416;37.840;2023-04-01T00:10:52;7.00;;;4.70;;
45909;SDS011;31622;55.416;37.840;2023-04-01T00:13:18;6.35;;;4.50;;
45909;SDS011;31622;55.416;37.840;2023-04-01T00:15:44;5.90;;;4.13;;
45909;SDS011;31622;55.416;37.840;2023-04-01T00:18:10;6.15;;;4.70;;
45909;SDS011;31622;55.416;37.840;2023-04-01T00:20:36;5.47;;;4.13;;
45909;SDS011;31622;55.416;37.840;2023-04-01T00:23:02;5.75;;;4.22;;
45909;SDS011;31622;55.416;37.840;2023-04-01T00:25:28;5.50;;;4.00;;
45909;SDS011;31622;55.416;37.840;2023-04-01T00:27:53;5.72;;;4.10;;
45909;SDS011;31622;55.416;37.840;2023-04-01T00:30:19;6.40;;;4.38;;
45909;SDS011;31622;55.416;37.840;2023-04-01T00:32:45;5.93;;;4.47;;
45909;SDS011;31622;55.416;37.840;2023-04-01T00:35:11;5.18;;;3.83;;
45909;SDS011;31622;55.416;37.840;2023-04-01T00:37:38;4.53;;;3.60;;
45909;SDS011;31622;55.416;37.840;2023-04-01T00:40:07;5.53;;;4.13;;
45909;SDS011;31622;55.416;37.840;2023-04-01T00:42:36;7.28;;;4.07;;
45909;SDS011;31622;55.416;37.840;2023-04-01T00:45:23;6.05;;;4.28;;
45909;SDS011;31622;55.416;37.840;2023-04-01T00:47:49;5.43;;;4.07;;
45909;SDS011;31622;55.416;37.840;2023-04-01T00:50:15;7.32;;;4.13;;
45909;SDS011;31622;55.416;37.840;2023-04-01T00:52:40;5.47;;;4.22;;
45909;SDS011;31622;55.416;37.840;2023-04-01T00:55:07;4.70;;;3.50;;
45909;SDS011;31622;55.416;37.840;2023-04-01T00:57:36;5.53;;;4.10;;
45909;SDS011;31622;55.416;37.840;2023-04-01T01:00:04;4.75;;;3.58;;
45909;SDS011;31622;55.416;37.840;2023-04-01T01:02:32;5.65;;;3.97;;
45909;SDS011;31622;55.416;37.840;2023-04-01T01:04:58;6.80;;;3.75;;
45909;SDS011;31622;55.416;37.840;2023-04-01T01:07:27;4.93;;;3.65;;
45909;SDS011;31622;55.416;37.840;2023-04-01T01:12:40;6.60;;;3.83;;
45909;SDS011;31622;55.416;37.840;2023-04-01T01:15:24;5.35;;;3.95;;
45909;SDS011;31622;55.416;37.840;2023-04-01T01:21:14;5.28;;;3.67;;
45909;SDS011;31622;55.416;37.840;2023-04-01T01:23:57;5.05;;;3.78;;
45909;SDS011;31622;55.416;37.840;2023-04-01T01:37:53;5.45;;;3.70;;
45909;SDS011;31622;55.416;37.840;2023-04-01T01:40:21;5.55;;;4.30;;
45909;SDS011;31622;55.416;37.840;2023-04-01T01:42:50;6.57;;;4.57;;
45909;SDS011;31622;55.416;37.840;2023-04-01T01:45:18;7.15;;;4.60;;
45909;SDS011;31622;55.416;37.840;2023-04-01T01:47:45;5.75;;;4.70;;
45909;SDS011;31622;55.416;37.840;2023-04-01T01:50:12;6.28;;;4.97;;
45909;SDS011;31622;55.416;37.840;2023-04-01T01:52:39;6.65;;;5.05;;
45909;SDS011;31622;55.416;37.840;2023-04-01T01:57:52;5.60;;;4.18;;
45909;SDS011;31622;55.416;37.840;2023-04-01T02:00:19;6.63;;;4.85;;
45909;SDS011;31622;55.416;37.840;2023-04-01T02:02:46;6.60;;;5.03;;
45909;SDS011;31622;55.416;37.840;2023-04-01T02:05:18;6.50;;;4.90;;
45909;SDS011;31622;55.416;37.840;2023-04-01T02:07:57;5.13;;;4.10;;
45909;SDS011;31622;55.416;37.840;2023-04-01T02:10:49;5.22;;;3.80;;
45909;SDS011;31622;55.416;37.840;2023-04-01T02:16:11;4.85;;;3.75;;
45909;SDS011;31622;55.416;37.840;2023-04-01T02:18:39;5.78;;;4.20;;
45909;SDS011;31622;55.416;37.840;2023-04-01T02:21:06;5.53;;;3.92;;
45909;SDS011;31622;55.416;37.840;2023-04-01T02:23:33;5.82;;;4.13;;
45909;SDS011;31622;55.416;37.840;2023-04-01T02:26:00;5.57;;;4.15;;
45909;SDS011;31622;55.416;37.840;2023-04-01T02:28:26;6.10;;;4.00;;
45909;SDS011;31622;55.416;37.840;2023-04-01T02:30:53;4.97;;;3.80;;
45909;SDS011;31622;55.416;37.840;2023-04-01T02:33:19;5.93;;;3.67;;
45909;SDS011;31622;55.416;37.840;2023-04-01T02:35:46;5.25;;;3.60;;
45909;SDS011;31622;55.416;37.840;2023-04-01T02:38:12;4.70;;;3.50;;
45909;SDS011;31622;55.416;37.840;2023-04-01T02:40:48;5.07;;;3.60;;
45909;SDS011;31622;55.416;37.840;2023-04-01T02:43:15;5.70;;;3.75;;
45909;SDS011;31622;55.416;37.840;2023-04-01T02:45:42;5.47;;;4.15;;
45909;SDS011;31622;55.416;37.840;2023-04-01T02:48:08;4.70;;;3.50;;
45909;SDS011;31622;55.416;37.840;2023-04-01T02:50:34;5.13;;;3.85;;
45909;SDS011;31622;55.416;37.840;2023-04-01T02:53:00;5.45;;;3.97;;
45909;SDS011;31622;55.416;37.840;2023-04-01T02:55:28;5.45;;;3.72;;
45909;SDS011;31622;55.416;37.840;2023-04-01T02:57:53;5.72;;;3.80;;
45909;SDS011;31622;55.416;37.840;2023-04-01T03:00:19;4.70;;;3.50;;
45909;SDS011;31622;55.416;37.840;2023-04-01T03:02:45;4.53;;;3.45;;
45909;SDS011;31622;55.416;37.840;2023-04-01T03:05:11;5.43;;;3.78;;
45909;SDS011;31622;55.416;37.840;2023-04-01T03:07:37;7.22;;;4.05;;
45909;SDS011;31622;55.416;37.840;2023-04-01T03:10:03;7.95;;;4.63;;
45909;SDS011;31622;55.416;37.840;2023-04-01T03:12:30;5.70;;;4.10;;
45909;SDS011;31622;55.416;37.840;2023-04-01T03:14:58;6.13;;;4.70;;
45909;SDS011;31622;55.416;37.840;2023-04-01T03:17:23;6.07;;;4.00;;
45909;SDS011;31622;55.416;37.840;2023-04-01T03:19:49;4.55;;;3.55;;
45909;SDS011;31622;55.416;37.840;2023-04-01T03:22:15;4.53;;;3.40;;
45909;SDS011;31622;55.416;37.840;2023-04-01T03:24:41;5.95;;;4.00;;
45909;SDS011;31622;55.416;37.840;2023-04-01T03:27:07;6.30;;;3.72;;
45909;SDS011;31622;55.416;37.840;2023-04-01T03:29:33;5.30;;;4.03;;
45909;SDS011;31622;55.416;37.840;2023-04-01T03:31:59;5.38;;;3.90;;
45909;SDS011;31622;55.416;37.840;2023-04-01T03:34:25;5.30;;;3.50;;
45909;SDS011;31622;55.416;37.840;2023-04-01T03:36:51;4.72;;;3.20;;
45909;SDS011;31622;55.416;37.840;2023-04-01T03:39:17;6.25;;;3.72;;
45909;SDS011;31622;55.416;37.840;2023-04-01T03:41:44;5.97;;;3.95;;
45909;SDS011;31622;55.416;37.840;2023-04-01T03:44:11;4.30;;;3.40;;
45909;SDS011;31622;55.416;37.840;2023-04-01T03:46:38;6.43;;;4.30;;
45909;SDS011;31622;55.416;37.840;2023-04-01T03:49:10;6.80;;;5.00;;
45909;SDS011;31622;55.416;37.840;2023-04-01T03:54:06;6.32;;;4.43;;
45909;SDS011;31622;55.416;37.840;2023-04-01T03:56:32;6.97;;;4.45;;
45909;SDS011;31622;55.416;37.840;2023-04-01T03:58:58;6.68;;;4.50;;
45909;SDS011;31622;55.416;37.840;2023-04-01T04:01:24;6.60;;;4.55;;
45909;SDS011;31622;55.416;37.840;2023-04-01T04:03:53;5.55;;;4.30;;
45909;SDS011;31622;55.416;37.840;2023-04-01T04:06:21;6.43;;;4.80;;
45909;SDS011;31622;55.416;37.840;2023-04-01T04:08:48;9.43;;;4.85;;
45909;SDS011;31622;55.416;37.840;2023-04-01T04:11:14;6.40;;;4.70;;
45909;SDS011;31622;55.416;37.840;2023-04-01T04:13:42;6.50;;;4.57;;
45909;SDS011;31622;55.416;37.840;2023-04-01T04:16:09;5.93;;;4.03;;
45909;SDS011;31622;55.416;37.840;2023-04-01T04:18:38;4.65;;;3.58;;
45909;SDS011;31622;55.416;37.840;2023-04-01T04:21:04;6.47;;;4.90;;
45909;SDS011;31622;55.416;37.840;2023-04-01T04:23:30;6.53;;;4.38;;
45909;SDS011;31622;55.416;37.840;2023-04-01T04:26:06;6.25;;;4.07;;
45909;SDS011;31622;55.416;37.840;2023-04-01T04:28:33;6.15;;;4.15;;
45909;SDS011;31622;55.416;37.840;2023-04-01T04:30:58;5.88;;;4.00;;
45909;SDS011;31622;55.416;37.840;2023-04-01T04:33:24;6.18;;;4.38;;
45909;SDS011;31622;55.416;37.840;2023-04-01T04:35:51;5.53;;;4.00;;
45909;SDS011;31622;55.416;37.840;2023-04-01T04:38:21;5.93;;;4.25;;
45909;SDS011;31622;55.416;37.840;2023-04-01T04:40:47;6.00;;;4.20;;
45909;SDS011;31622;55.416;37.840;2023-04-01T04:43:13;6.22;;;4.18;;
45909;SDS011;31622;55.416;37.840;2023-04-01T04:45:41;4.72;;;3.70;;
45909;SDS011;31622;55.416;37.840;2023-04-01T04:48:08;7.18;;;4.68;;
45909;SDS011;31622;55.416;37.840;2023-04-01T04:50:35;8.90;;;5.00;;
45909;SDS011;31622;55.416;37.840;2023-04-01T04:53:02;9.75;;;5.45;;
45909;SDS011;31622;55.416;37.840;2023-04-01T04:55:29;8.95;;;5.25;;
45909;SDS011;31622;55.416;37.840;2023-04-01T04:58:15;8.85;;;5.32;;
45909;SDS011;31622;55.416;37.840;2023-04-01T05:00:43;7.07;;;4.97;;
45909;SDS011;31622;55.416;37.840;2023-04-01T05:03:17;6.75;;;4.80;;
45909;SDS011;31622;55.416;37.840;2023-04-01T05:05:48;6.97;;;4.40;;
45909;SDS011;31622;55.416;37.840;2023-04-01T05:10:40;8.68;;;4.68;;
45909;SDS011;31622;55.416;37.840;2023-04-01T05:13:06;8.20;;;4.85;;
45909;SDS011;31622;55.416;37.840;2023-04-01T05:15:32;13.45;;;6.18;;
45909;SDS011;31622;55.416;37.840;2023-04-01T05:17:59;9.63;;;5.25;;
45909;SDS011;31622;55.416;37.840;2023-04-01T05:20:25;9.98;;;5.90;;
45909;SDS011;31622;55.416;37.840;2023-04-01T05:22:55;11.40;;;6.35;;
45909;SDS011;31622;55.416;37.840;2023-04-01T05:25:21;10.88;;;5.68;;
45909;SDS011;31622;55.416;37.840;2023-04-01T05:27:47;13.55;;;6.40;;
45909;SDS011;31622;55.416;37.840;2023-04-01T05:30:13;11.10;;;5.30;;
45909;SDS011;31622;55.416;37.840;2023-04-01T05:32:59;11.80;;;6.07;;
45909;SDS011;31622;55.416;37.840;2023-04-01T05:35:26;10.95;;;5.40;;
45909;SDS011;31622;55.416;37.840;2023-04-01T05:37:51;9.93;;;5.57;;
45909;SDS011;31622;55.416;37.840;2023-04-01T05:40:17;9.30;;;5.35;;
45909;SDS011;31622;55.416;37.840;2023-04-01T05:42:43;9.77;;;5.28;;
45909;SDS011;31622;55.416;37.840;2023-04-01T05:45:10;8.10;;;5.18;;
45909;SDS011;31622;55.416;37.840;2023-04-01T05:47:56;7.25;;;5.00;;
45909;SDS011;31622;55.416;37.840;2023-04-01T05:50:22;9.27;;;5.45;;
45909;SDS011;31622;55.416;37.840;2023-04-01T05:52:48;8.85;;;5.38;;
45909;SDS011;31622;55.416;37.840;2023-04-01T05:55:14;10.18;;;5.20;;
45909;SDS011;31622;55.416;37.840;2023-04-01T05:57:40;10.48;;;5.90;;
45909;SDS011;31622;55.416;37.840;2023-04-01T06:00:06;10.13;;;5.95;;
45909;SDS011;31622;55.416;37.840;2023-04-01T06:02:37;10.52;;;6.32;;
45909;SDS011;31622;55.416;37.840;2023-04-01T06:07:50;10.65;;;6.38;;
45909;SDS011;31622;55.416;37.840;2023-04-01T06:10:21;9.73;;;6.15;;
45909;SDS011;31622;55.416;37.840;2023-04-01T06:18:14;12.20;;;6.70;;
45909;SDS011;31622;55.416;37.840;2023-04-01T06:21:04;9.93;;;6.00;;
45909;SDS011;31622;55.416;37.840;2023-04-01T06:32:48;10.68;;;5.95;;
45909;SDS011;31622;55.416;37.840;2023-04-01T06:35:25;16.95;;;7.28;;
45909;SDS011;31622;55.416;37.840;2023-04-01T06:38:00;11.63;;;6.38;;
45909;SDS011;31622;55.416;37.840;2023-04-01T06:53:39;8.75;;;5.68;;
45909;SDS011;31622;55.416;37.840;2023-04-01T06:56:54;11.18;;;5.75;;
45909;SDS011;31622;55.416;37.840;2023-04-01T06:59:30;8.40;;;5.65;;
45909;SDS011;31622;55.416;37.840;2023-04-01T07:01:59;9.65;;;5.80;;
45909;SDS011;31622;55.416;37.840;2023-04-01T07:04:32;10.13;;;5.00;;
45909;SDS011;31622;55.416;37.840;2023-04-01T07:07:24;10.18;;;5.32;;
45909;SDS011;31622;55.416;37.840;2023-04-01T07:10:05;9.35;;;5.32;;
45909;SDS011;31622;55.416;37.840;2023-04-01T07:13:02;12.65;;;5.93;;
45909;SDS011;31622;55.416;37.840;2023-04-01T07:15:59;9.50;;;5.25;;
45909;SDS011;31622;55.416;37.840;2023-04-01T07:22:03;7.20;;;4.75;;
45909;SDS011;31622;55.416;37.840;2023-04-01T07:24:51;9.60;;;5.70;;
45909;SDS011;31622;55.416;37.840;2023-04-01T07:27:17;8.65;;;5.00;;
45909;SDS011;31622;55.416;37.840;2023-04-01T07:29:44;8.65;;;4.80;;
45909;SDS011;31622;55.416;37.840;2023-04-01T07:47:29;10.75;;;4.80;;
45909;SDS011;31622;55.416;37.840;2023-04-01T08:04:14;35.92;;;20.25;;
45909;SDS011;31622;55.416;37.840;2023-04-01T08:07:10;27.00;;;15.35;;
45909;SDS011;31622;55.416;37.840;2023-04-01T08:10:21;23.95;;;12.32;;
45909;SDS011;31622;55.416;37.840;2023-04-01T08:21:50;16.48;;;9.32;;
45909;SDS011;31622;55.416;37.840;2023-04-01T08:24:29;16.00;;;8.82;;
45909;SDS011;31622;55.416;37.840;2023-04-01T08:27:03;15.30;;;9.20;;
45909;SDS011;31622;55.416;37.840;2023-04-01T08:29:39;13.23;;;7.80;;
45909;SDS011;31622;55.416;37.840;2023-04-01T08:37:47;13.57;;;6.38;;
45909;SDS011;31622;55.416;37.840;2023-04-01T08:40:39;10.90;;;6.15;;
45909;SDS011;31622;55.416;37.840;2023-04-01T08:55:51;7.00;;;4.40;;
45909;SDS011;31622;55.416;37.840;2023-04-01T09:13:10;7.95;;;3.70;;
45909;SDS011;31622;55.416;37.840;2023-04-01T09:18:52;5.72;;;3.90;;
45909;SDS011;31622;55.416;37.840;2023-04-01T09:24:32;6.60;;;3.80;;
45909;SDS011;31622;55.416;37.840;2023-04-01T09:33:24;5.93;;;3.50;;
45909;SDS011;31622;55.416;37.840;2023-04-01T09:50:27;5.80;;;2.80;;
45909;SDS011;31622;55.416;37.840;2023-04-01T10:12:24;10.82;;;3.28;;
45909;SDS011;31622;55.416;37.840;2023-04-01T10:41:26;3.67;;;2.80;;
45909;SDS011;31622;55.416;37.840;2023-04-01T10:45:09;4.00;;;2.60;;
45909;SDS011;31622;55.416;37.840;2023-04-01T11:11:35;6.43;;;3.53;;
45909;SDS011;31622;55.416;37.840;2023-04-01T11:31:46;5.55;;;2.95;;
45909;SDS011;31622;55.416;37.840;2023-04-01T11:34:43;7.45;;;3.33;;
45909;SDS011;31622;55.416;37.840;2023-04-01T11:43:49;4.60;;;3.25;;
45909;SDS011;31622;55.416;37.840;2023-04-01T11:47:03;4.57;;;2.75;;
45909;SDS011;31622;55.416;37.840;2023-04-01T11:55:10;8.10;;;2.80;;
45909;SDS011;31622;55.416;37.840;2023-04-01T12:09:20;6.60;;;3.42;;
45909;SDS011;31622;55.416;37.840;2023-04-01T12:11:52;4.55;;;3.13;;
45909;SDS011;31622;55.416;37.840;2023-04-01T12:17:51;5.65;;;3.00;;
45909;SDS011;31622;55.416;37.840;2023-04-01T12:20:41;4.07;;;2.60;;
45909;SDS011;31622;55.416;37.840;2023-04-01T12:26:15;5.20;;;3.55;;
45909;SDS011;31622;55.416;37.840;2023-04-01T12:31:42;5.32;;;2.58;;
45909;SDS011;31622;55.416;37.840;2023-04-01T12:37:41;4.30;;;2.85;;
45909;SDS011;31622;55.416;37.840;2023-04-01T12:52:03;4.93;;;3.15;;
45909;SDS011;31622;55.416;37.840;2023-04-01T13:00:11;3.92;;;2.72;;
45909;SDS011;31622;55.416;37.840;2023-04-01T13:07:57;5.00;;;2.67;;
45909;SDS011;31622;55.416;37.840;2023-04-01T13:10:52;5.28;;;2.50;;
45909;SDS011;31622;55.416;37.840;2023-04-01T13:16:38;3.50;;;2.60;;
45909;SDS011;31622;55.416;37.840;2023-04-01T13:19:08;5.22;;;2.70;;
45909;SDS011;31622;55.416;37.840;2023-04-01T13:24:27;6.50;;;3.03;;
45909;SDS011;31622;55.416;37.840;2023-04-01T13:29:43;3.95;;;2.92;;
45909;SDS011;31622;55.416;37.840;2023-04-01T13:37:54;11.68;;;3.70;;
45909;SDS011;31622;55.416;37.840;2023-04-01T13:40:36;11.85;;;4.18;;
45909;SDS011;31622;55.416;37.840;2023-04-01T13:43:12;11.38;;;3.70;;
45909;SDS011;31622;55.416;37.840;2023-04-01T14:23:56;9.82;;;4.97;;
45909;SDS011;31622;55.416;37.840;2023-04-01T14:32:52;6.65;;;4.40;;
45909;SDS011;31622;55.416;37.840;2023-04-01T14:38:17;6.38;;;4.30;;
45909;SDS011;31622;55.416;37.840;2023-04-01T14:49:15;8.18;;;4.95;;
45909;SDS011;31622;55.416;37.840;2023-04-01T14:51:45;11.20;;;5.55;;
45909;SDS011;31622;55.416;37.840;2023-04-01T14:59:08;38.97;;;13.93;;
45909;SDS011;31622;55.416;37.840;2023-04-01T15:10:19;27.77;;;10.75;;
45909;SDS011;31622;55.416;37.840;2023-04-01T15:18:34;18.45;;;7.88;;
45909;SDS011;31622;55.416;37.840;2023-04-01T15:24:26;16.25;;;6.90;;
45909;SDS011;31622;55.416;37.840;2023-04-01T15:40:46;9.20;;;5.22;;
45909;SDS011;31622;55.416;37.840;2023-04-01T15:46:14;12.50;;;6.07;;
45909;SDS011;31622;55.416;37.840;2023-04-01T15:51:36;10.90;;;5.55;;
45909;SDS011;31622;55.416;37.840;2023-04-01T16:02:46;11.65;;;5.00;;
45909;SDS011;31622;55.416;37.840;2023-04-01T16:22:35;8.23;;;4.60;;
45909;SDS011;31622;55.416;37.840;2023-04-01T16:27:58;6.95;;;4.30;;
45909;SDS011;31622;55.416;37.840;2023-04-01T16:34:07;8.48;;;4.32;;
45909;SDS011;31622;55.416;37.840;2023-04-01T16:36:37;7.15;;;3.97;;
45909;SDS011;31622;55.416;37.840;2023-04-01T16:41:36;6.15;;;4.03;;
45909;SDS011;31622;55.416;37.840;2023-04-01T16:44:25;7.13;;;4.43;;
45909;SDS011;31622;55.416;37.840;2023-04-01T16:46:53;8.07;;;4.60;;
45909;SDS011;31622;55.416;37.840;2023-04-01T16:49:39;8.15;;;4.10;;
45909;SDS011;31622;55.416;37.840;2023-04-01T16:59:37;7.85;;;4.22;;
45909;SDS011;31622;55.416;37.840;2023-04-01T17:04:34;6.80;;;4.30;;
45909;SDS011;31622;55.416;37.840;2023-04-01T17:33:55;8.13;;;4.97;;
45909;SDS011;31622;55.416;37.840;2023-04-01T17:36:36;8.15;;;5.30;;
45909;SDS011;31622;55.416;37.840;2023-04-01T17:39:30;9.73;;;6.32;;
45909;SDS011;31622;55.416;37.840;2023-04-01T17:42:20;10.65;;;6.18;;
45909;SDS011;31622;55.416;37.840;2023-04-01T17:44:58;11.43;;;6.45;;
45909;SDS011;31622;55.416;37.840;2023-04-01T17:47:31;7.00;;;5.82;;
45909;SDS011;31622;55.416;37.840;2023-04-01T17:53:06;9.15;;;6.13;;
45909;SDS011;31622;55.416;37.840;2023-04-01T17:55:48;10.75;;;6.38;;
45909;SDS011;31622;55.416;37.840;2023-04-01T17:58:46;9.20;;;6.13;;
45909;SDS011;31622;55.416;37.840;2023-04-01T18:01:41;9.77;;;6.50;;
45909;SDS011;31622;55.416;37.840;2023-04-01T18:15:37;9.57;;;6.32;;
45909;SDS011;31622;55.416;37.840;2023-04-01T18:27:32;11.57;;;6.93;;
45909;SDS011;31622;55.416;37.840;2023-04-01T18:29:54;9.35;;;6.18;;
45909;SDS011;31622;55.416;37.840;2023-04-01T18:32:50;9.85;;;6.30;;
45909;SDS011;31622;55.416;37.840;2023-04-01T18:35:24;9.23;;;6.57;;
45909;SDS011;31622;55.416;37.840;2023-04-01T18:38:04;8.18;;;5.70;;
45909;SDS011;31622;55.416;37.840;2023-04-01T18:46:01;11.57;;;6.40;;
45909;SDS011;31622;55.416;37.840;2023-04-01T18:53:48;7.75;;;5.03;;
45909;SDS011;31622;55.416;37.840;2023-04-01T18:56:24;9.30;;;5.13;;
45909;SDS011;31622;55.416;37.840;2023-04-01T18:58:54;7.30;;;5.00;;
45909;SDS011;31622;55.416;37.840;2023-04-01T19:01:37;7.35;;;5.30;;
45909;SDS011;31622;55.416;37.840;2023-04-01T19:04:30;7.68;;;5.20;;
45909;SDS011;31622;55.416;37.840;2023-04-01T19:07:00;8.63;;;5.00;;
45909;SDS011;31622;55.416;37.840;2023-04-01T19:09:46;12.52;;;4.68;;
45909;SDS011;31622;55.416;37.840;2023-04-01T19:20:51;8.68;;;5.28;;
45909;SDS011;31622;55.416;37.840;2023-04-01T19:26:15;8.57;;;5.03;;
45909;SDS011;31622;55.416;37.840;2023-04-01T19:28:55;8.40;;;5.10;;
45909;SDS011;31622;55.416;37.840;2023-04-01T19:31:59;7.68;;;5.00;;
45909;SDS011;31622;55.416;37.840;2023-04-01T19:34:30;7.57;;;5.07;;
45909;SDS011;31622;55.416;37.840;2023-04-01T19:37:27;7.60;;;5.47;;
45909;SDS011;31622;55.416;37.840;2023-04-01T19:50:36;8.80;;;4.93;;
45909;SDS011;31622;55.416;37.840;2023-04-01T19:53:12;8.13;;;4.95;;
45909;SDS011;31622;55.416;37.840;2023-04-01T19:56:04;9.55;;;4.78;;
45909;SDS011;31622;55.416;37.840;2023-04-01T20:04:19;7.15;;;4.43;;
45909;SDS011;31622;55.416;37.840;2023-04-01T20:06:58;6.65;;;4.53;;
45909;SDS011;31622;55.416;37.840;2023-04-01T20:09:35;7.30;;;4.18;;
45909;SDS011;31622;55.416;37.840;2023-04-01T20:12:41;6.55;;;4.50;;
45909;SDS011;31622;55.416;37.840;2023-04-01T20:18:33;6.55;;;4.75;;
45909;SDS011;31622;55.416;37.840;2023-04-01T20:20:59;6.90;;;4.70;;
45909;SDS011;31622;55.416;37.840;2023-04-01T20:23:43;7.03;;;5.00;;
45909;SDS011;31622;55.416;37.840;2023-04-01T20:26:22;7.68;;;4.88;;
45909;SDS011;31622;55.416;37.840;2023-04-01T20:31:55;7.82;;;4.63;;
45909;SDS011;31622;55.416;37.840;2023-04-01T20:37:01;8.90;;;4.75;;
45909;SDS011;31622;55.416;37.840;2023-04-01T20:42:17;6.85;;;4.45;;
45909;SDS011;31622;55.416;37.840;2023-04-01T20:53:20;7.90;;;5.25;;
45909;SDS011;31622;55.416;37.840;2023-04-01T21:01:44;8.02;;;4.78;;
45909;SDS011;31622;55.416;37.840;2023-04-01T21:07:11;6.72;;;4.85;;
45909;SDS011;31622;55.416;37.840;2023-04-01T21:20:58;7.55;;;4.53;;
45909;SDS011;31622;55.416;37.840;2023-04-01T21:23:31;7.85;;;5.13;;
45909;SDS011;31622;55.416;37.840;2023-04-01T21:29:18;6.35;;;4.97;;
45909;SDS011;31622;55.416;37.840;2023-04-01T21:34:48;8.80;;;4.95;;
45909;SDS011;31622;55.416;37.840;2023-04-01T21:40:00;7.78;;;5.20;;
45909;SDS011;31622;55.416;37.840;2023-04-01T22:10:47;9.57;;;5.80;;
45909;SDS011;31622;55.416;37.840;2023-04-01T22:13:32;8.77;;;5.43;;
45909;SDS011;31622;55.416;37.840;2023-04-01T22:16:02;7.88;;;4.88;;
45909;SDS011;31622;55.416;37.840;2023-04-01T22:18:31;7.80;;;5.30;;
45909;SDS011;31622;55.416;37.840;2023-04-01T22:23:36;11.77;;;6.63;;
45909;SDS011;31622;55.416;37.840;2023-04-01T22:26:18;8.55;;;5.45;;
45909;SDS011;31622;55.416;37.840;2023-04-01T22:32:16;9.30;;;5.82;;
45909;SDS011;31622;55.416;37.840;2023-04-01T22:34:42;10.25;;;6.07;;
45909;SDS011;31622;55.416;37.840;2023-04-01T22:42:43;10.02;;;6.05;;
45909;SDS011;31622;55.416;37.840;2023-04-01T22:47:47;11.07;;;6.25;;
45909;SDS011;31622;55.416;37.840;2023-04-01T22:50:27;12.30;;;6.85;;
45909;SDS011;31622;55.416;37.840;2023-04-01T22:52:57;10.88;;;6.45;;
45909;SDS011;31622;55.416;37.840;2023-04-01T22:55:40;12.00;;;6.57;;
45909;SDS011;31622;55.416;37.840;2023-04-01T22:58:08;10.85;;;6.15;;
45909;SDS011;31622;55.416;37.840;2023-04-01T23:00:39;10.48;;;5.85;;
45909;SDS011;31622;55.416;37.840;2023-04-01T23:05:56;13.90;;;6.88;;
45909;SDS011;31622;55.416;37.840;2023-04-01T23:11:26;12.07;;;6.30;;
45909;SDS011;31622;55.416;37.840;2023-04-01T23:16:57;10.82;;;6.43;;
45909;SDS011;31622;55.416;37.840;2023-04-01T23:19:37;11.55;;;6.35;;
45909;SDS011;31622;55.416;37.840;2023-04-01T23:22:21;15.10;;;7.28;;
45909;SDS011;31622;55.416;37.840;2023-04-01T23:27:41;12.02;;;6.97;;
45909;SDS011;31622;55.416;37.840;2023-04-01T23:36:03;12.63;;;7.00;;
45909;SDS011;31622;55.416;37.840;2023-04-01T23:38:36;13.10;;;7.38;;
45909;SDS011;31622;55.416;37.840;2023-04-01T23:41:05;10.65;;;6.40;;
45909;SDS011;31622;55.416;37.840;2023-04-01T23:43:32;12.77;;;7.07;;
45909;SDS011;31622;55.416;37.840;2023-04-01T23:46:00;12.68;;;7.32;;
45909;SDS011;31622;55.416;37.840;2023-04-01T23:48:38;13.10;;;6.80;;
45909;SDS011;31622;55.416;37.840;2023-04-01T23:51:13;11.60;;;5.85;;
45909;SDS011;31622;55.416;37.840;2023-04-01T23:53:44;14.18;;;6.70;;
45909;SDS011;31622;55.416;37.840;2023-04-01T23:56:11;13.25;;;7.50;;
